sensor_id;sensor_type;location;lat;lon;timestamp;P1;durP1;ratioP1;P2;durP2;ratioP2
79533;SDS011;68982;52.160;6.736;2023-11-19T00:00:05;17.45;;;8.30;;
79533;SDS011;68982;52.160;6.736;2023-11-19T00:02:36;13.50;;;8.88;;
79533;SDS011;68982;52.160;6.736;2023-11-19T00:05:01;12.48;;;8.27;;
79533;SDS011;68982;52.160;6.736;2023-11-19T00:07:26;19.30;;;9.00;;
79533;SDS011;68982;52.160;6.736;2023-11-19T00:09:52;13.50;;;9.67;;
79533;SDS011;68982;52.160;6.736;2023-11-19T00:12:17;13.00;;;8.95;;
79533;SDS011;68982;52.160;6.736;2023-11-19T00:14:43;13.38;;;8.77;;
79533;SDS011;68982;52.160;6.736;2023-11-19T00:17:09;15.95;;;9.50;;
79533;SDS011;68982;52.160;6.736;2023-11-19T00:19:34;13.32;;;8.98;;
79533;SDS011;68982;52.160;6.736;2023-11-19T00:22:00;15.43;;;8.82;;
79533;SDS011;68982;52.160;6.736;2023-11-19T00:24:27;14.25;;;9.15;;
79533;SDS011;68982;52.160;6.736;2023-11-19T00:26:53;15.00;;;9.70;;
79533;SDS011;68982;52.160;6.736;2023-11-19T00:29:18;12.63;;;8.97;;
79533;SDS011;68982;52.160;6.736;2023-11-19T00:31:45;16.60;;;8.98;;
79533;SDS011;68982;52.160;6.736;2023-11-19T00:34:10;14.23;;;9.63;;
79533;SDS011;68982;52.160;6.736;2023-11-19T00:36:36;13.52;;;8.63;;
79533;SDS011;68982;52.160;6.736;2023-11-19T00:39:01;13.77;;;8.93;;
79533;SDS011;68982;52.160;6.736;2023-11-19T00:41:26;15.18;;;8.80;;
79533;SDS011;68982;52.160;6.736;2023-11-19T00:43:52;15.38;;;9.05;;
79533;SDS011;68982;52.160;6.736;2023-11-19T00:46:17;15.37;;;9.47;;
79533;SDS011;68982;52.160;6.736;2023-11-19T00:48:43;13.43;;;9.55;;
79533;SDS011;68982;52.160;6.736;2023-11-19T00:51:08;14.02;;;8.50;;
79533;SDS011;68982;52.160;6.736;2023-11-19T00:53:33;12.77;;;8.40;;
79533;SDS011;68982;52.160;6.736;2023-11-19T00:55:59;12.87;;;8.20;;
79533;SDS011;68982;52.160;6.736;2023-11-19T00:58:25;15.40;;;8.65;;
79533;SDS011;68982;52.160;6.736;2023-11-19T01:00:50;12.13;;;8.10;;
79533;SDS011;68982;52.160;6.736;2023-11-19T01:03:16;13.30;;;8.32;;
79533;SDS011;68982;52.160;6.736;2023-11-19T01:05:41;12.90;;;8.30;;
79533;SDS011;68982;52.160;6.736;2023-11-19T01:08:07;12.10;;;8.32;;
79533;SDS011;68982;52.160;6.736;2023-11-19T01:10:33;14.70;;;9.27;;
79533;SDS011;68982;52.160;6.736;2023-11-19T01:12:59;11.25;;;7.80;;
79533;SDS011;68982;52.160;6.736;2023-11-19T01:15:24;13.70;;;8.57;;
79533;SDS011;68982;52.160;6.736;2023-11-19T01:17:50;12.70;;;8.70;;
79533;SDS011;68982;52.160;6.736;2023-11-19T01:20:15;12.90;;;8.60;;
79533;SDS011;68982;52.160;6.736;2023-11-19T01:22:40;14.45;;;9.38;;
79533;SDS011;68982;52.160;6.736;2023-11-19T01:25:06;14.60;;;8.45;;
79533;SDS011;68982;52.160;6.736;2023-11-19T01:27:32;14.75;;;8.68;;
79533;SDS011;68982;52.160;6.736;2023-11-19T01:29:59;13.10;;;8.45;;
79533;SDS011;68982;52.160;6.736;2023-11-19T01:32:25;13.95;;;8.73;;
79533;SDS011;68982;52.160;6.736;2023-11-19T01:34:50;20.13;;;9.00;;
79533;SDS011;68982;52.160;6.736;2023-11-19T01:37:16;14.57;;;8.27;;
79533;SDS011;68982;52.160;6.736;2023-11-19T01:39:44;16.20;;;8.48;;
79533;SDS011;68982;52.160;6.736;2023-11-19T01:42:10;14.73;;;8.73;;
79533;SDS011;68982;52.160;6.736;2023-11-19T01:44:36;13.57;;;8.60;;
79533;SDS011;68982;52.160;6.736;2023-11-19T01:47:02;19.27;;;9.32;;
79533;SDS011;68982;52.160;6.736;2023-11-19T01:49:28;17.55;;;10.23;;
79533;SDS011;68982;52.160;6.736;2023-11-19T01:51:57;16.60;;;8.90;;
79533;SDS011;68982;52.160;6.736;2023-11-19T01:54:23;16.50;;;9.50;;
79533;SDS011;68982;52.160;6.736;2023-11-19T01:56:49;18.88;;;10.43;;
79533;SDS011;68982;52.160;6.736;2023-11-19T01:59:14;17.30;;;9.23;;
79533;SDS011;68982;52.160;6.736;2023-11-19T02:01:41;20.02;;;9.25;;
79533;SDS011;68982;52.160;6.736;2023-11-19T02:04:07;23.63;;;9.43;;
79533;SDS011;68982;52.160;6.736;2023-11-19T02:06:34;17.63;;;9.43;;
79533;SDS011;68982;52.160;6.736;2023-11-19T02:09:01;17.73;;;9.30;;
79533;SDS011;68982;52.160;6.736;2023-11-19T02:11:32;17.83;;;10.40;;
79533;SDS011;68982;52.160;6.736;2023-11-19T02:13:58;18.38;;;9.45;;
79533;SDS011;68982;52.160;6.736;2023-11-19T02:16:24;20.77;;;8.82;;
79533;SDS011;68982;52.160;6.736;2023-11-19T02:18:49;23.15;;;9.88;;
79533;SDS011;68982;52.160;6.736;2023-11-19T02:21:14;17.73;;;9.27;;
79533;SDS011;68982;52.160;6.736;2023-11-19T02:23:40;17.20;;;8.95;;
79533;SDS011;68982;52.160;6.736;2023-11-19T02:26:19;19.05;;;9.30;;
79533;SDS011;68982;52.160;6.736;2023-11-19T02:28:48;20.77;;;8.98;;
79533;SDS011;68982;52.160;6.736;2023-11-19T02:31:13;19.33;;;8.82;;
79533;SDS011;68982;52.160;6.736;2023-11-19T02:33:39;16.08;;;8.45;;
79533;SDS011;68982;52.160;6.736;2023-11-19T02:36:05;18.73;;;8.30;;
79533;SDS011;68982;52.160;6.736;2023-11-19T02:38:34;19.30;;;8.38;;
79533;SDS011;68982;52.160;6.736;2023-11-19T02:41:03;19.70;;;8.10;;
79533;SDS011;68982;52.160;6.736;2023-11-19T02:43:30;14.55;;;6.72;;
79533;SDS011;68982;52.160;6.736;2023-11-19T02:46:02;19.08;;;7.40;;
79533;SDS011;68982;52.160;6.736;2023-11-19T02:48:31;19.48;;;7.60;;
79533;SDS011;68982;52.160;6.736;2023-11-19T02:50:57;20.55;;;8.77;;
79533;SDS011;68982;52.160;6.736;2023-11-19T02:53:23;21.98;;;8.68;;
79533;SDS011;68982;52.160;6.736;2023-11-19T02:55:50;19.70;;;7.40;;
79533;SDS011;68982;52.160;6.736;2023-11-19T02:58:15;15.35;;;6.72;;
79533;SDS011;68982;52.160;6.736;2023-11-19T03:00:49;17.13;;;7.80;;
79533;SDS011;68982;52.160;6.736;2023-11-19T03:03:22;16.25;;;6.75;;
79533;SDS011;68982;52.160;6.736;2023-11-19T03:05:53;17.55;;;5.93;;
79533;SDS011;68982;52.160;6.736;2023-11-19T03:08:19;15.88;;;6.70;;
79533;SDS011;68982;52.160;6.736;2023-11-19T03:10:44;17.87;;;6.07;;
79533;SDS011;68982;52.160;6.736;2023-11-19T03:13:11;20.85;;;6.72;;
79533;SDS011;68982;52.160;6.736;2023-11-19T03:15:40;22.63;;;5.70;;
79533;SDS011;68982;52.160;6.736;2023-11-19T03:18:06;19.50;;;6.50;;
79533;SDS011;68982;52.160;6.736;2023-11-19T03:20:32;21.75;;;6.65;;
79533;SDS011;68982;52.160;6.736;2023-11-19T03:22:57;22.00;;;6.82;;
79533;SDS011;68982;52.160;6.736;2023-11-19T03:25:26;15.15;;;5.38;;
79533;SDS011;68982;52.160;6.736;2023-11-19T03:28:01;20.25;;;5.68;;
79533;SDS011;68982;52.160;6.736;2023-11-19T03:30:28;13.02;;;5.40;;
79533;SDS011;68982;52.160;6.736;2023-11-19T03:32:54;17.92;;;4.97;;
79533;SDS011;68982;52.160;6.736;2023-11-19T03:35:22;24.40;;;5.88;;
79533;SDS011;68982;52.160;6.736;2023-11-19T03:37:48;25.23;;;5.20;;
79533;SDS011;68982;52.160;6.736;2023-11-19T03:40:14;14.40;;;4.90;;
79533;SDS011;68982;52.160;6.736;2023-11-19T03:42:39;20.67;;;4.28;;
79533;SDS011;68982;52.160;6.736;2023-11-19T03:45:06;15.82;;;4.70;;
79533;SDS011;68982;52.160;6.736;2023-11-19T03:47:33;22.45;;;4.60;;
79533;SDS011;68982;52.160;6.736;2023-11-19T03:49:59;18.55;;;4.03;;
79533;SDS011;68982;52.160;6.736;2023-11-19T03:52:25;22.65;;;4.85;;
79533;SDS011;68982;52.160;6.736;2023-11-19T03:54:52;16.23;;;4.68;;
79533;SDS011;68982;52.160;6.736;2023-11-19T03:57:18;24.10;;;4.88;;
79533;SDS011;68982;52.160;6.736;2023-11-19T03:59:43;14.95;;;3.95;;
79533;SDS011;68982;52.160;6.736;2023-11-19T04:02:09;16.05;;;4.13;;
79533;SDS011;68982;52.160;6.736;2023-11-19T04:04:35;21.50;;;4.25;;
79533;SDS011;68982;52.160;6.736;2023-11-19T04:07:01;17.77;;;4.50;;
79533;SDS011;68982;52.160;6.736;2023-11-19T04:09:28;20.38;;;4.68;;
79533;SDS011;68982;52.160;6.736;2023-11-19T04:11:54;21.02;;;4.80;;
79533;SDS011;68982;52.160;6.736;2023-11-19T04:14:19;19.80;;;4.73;;
79533;SDS011;68982;52.160;6.736;2023-11-19T04:16:45;21.92;;;4.28;;
79533;SDS011;68982;52.160;6.736;2023-11-19T04:19:10;20.00;;;4.60;;
79533;SDS011;68982;52.160;6.736;2023-11-19T04:21:36;23.45;;;4.50;;
79533;SDS011;68982;52.160;6.736;2023-11-19T04:24:02;24.63;;;4.93;;
79533;SDS011;68982;52.160;6.736;2023-11-19T04:26:27;23.42;;;4.63;;
79533;SDS011;68982;52.160;6.736;2023-11-19T04:28:52;22.40;;;3.85;;
79533;SDS011;68982;52.160;6.736;2023-11-19T04:31:18;19.93;;;4.50;;
79533;SDS011;68982;52.160;6.736;2023-11-19T04:33:43;20.10;;;4.53;;
79533;SDS011;68982;52.160;6.736;2023-11-19T04:36:09;17.95;;;3.97;;
79533;SDS011;68982;52.160;6.736;2023-11-19T04:38:35;18.83;;;4.43;;
79533;SDS011;68982;52.160;6.736;2023-11-19T04:41:00;20.38;;;3.97;;
79533;SDS011;68982;52.160;6.736;2023-11-19T04:43:26;16.85;;;4.22;;
79533;SDS011;68982;52.160;6.736;2023-11-19T04:45:51;36.55;;;5.70;;
79533;SDS011;68982;52.160;6.736;2023-11-19T04:48:16;28.48;;;4.80;;
79533;SDS011;68982;52.160;6.736;2023-11-19T04:50:42;21.60;;;5.00;;
79533;SDS011;68982;52.160;6.736;2023-11-19T04:53:07;27.50;;;5.03;;
79533;SDS011;68982;52.160;6.736;2023-11-19T04:55:32;28.33;;;5.20;;
79533;SDS011;68982;52.160;6.736;2023-11-19T04:57:58;21.00;;;4.73;;
79533;SDS011;68982;52.160;6.736;2023-11-19T05:00:23;31.30;;;6.20;;
79533;SDS011;68982;52.160;6.736;2023-11-19T05:02:48;25.60;;;5.40;;
79533;SDS011;68982;52.160;6.736;2023-11-19T05:05:15;31.67;;;4.67;;
79533;SDS011;68982;52.160;6.736;2023-11-19T05:07:41;27.15;;;5.55;;
79533;SDS011;68982;52.160;6.736;2023-11-19T05:10:06;25.40;;;4.67;;
79533;SDS011;68982;52.160;6.736;2023-11-19T05:12:32;23.85;;;4.93;;
79533;SDS011;68982;52.160;6.736;2023-11-19T05:14:57;29.33;;;5.07;;
79533;SDS011;68982;52.160;6.736;2023-11-19T05:17:23;24.77;;;4.87;;
79533;SDS011;68982;52.160;6.736;2023-11-19T05:19:48;25.30;;;4.60;;
79533;SDS011;68982;52.160;6.736;2023-11-19T05:22:14;25.00;;;4.60;;
79533;SDS011;68982;52.160;6.736;2023-11-19T05:24:39;21.05;;;4.25;;
79533;SDS011;68982;52.160;6.736;2023-11-19T05:27:06;28.65;;;4.78;;
79533;SDS011;68982;52.160;6.736;2023-11-19T05:29:32;21.80;;;4.15;;
79533;SDS011;68982;52.160;6.736;2023-11-19T05:31:58;32.10;;;4.38;;
79533;SDS011;68982;52.160;6.736;2023-11-19T05:34:23;26.67;;;5.10;;
79533;SDS011;68982;52.160;6.736;2023-11-19T05:36:49;33.78;;;5.43;;
79533;SDS011;68982;52.160;6.736;2023-11-19T05:39:15;24.40;;;4.57;;
79533;SDS011;68982;52.160;6.736;2023-11-19T05:41:41;22.65;;;5.07;;
79533;SDS011;68982;52.160;6.736;2023-11-19T05:44:06;24.57;;;4.40;;
79533;SDS011;68982;52.160;6.736;2023-11-19T05:46:32;22.02;;;4.30;;
79533;SDS011;68982;52.160;6.736;2023-11-19T05:48:57;23.88;;;4.85;;
79533;SDS011;68982;52.160;6.736;2023-11-19T05:51:22;19.63;;;4.80;;
79533;SDS011;68982;52.160;6.736;2023-11-19T05:53:49;34.15;;;4.30;;
79533;SDS011;68982;52.160;6.736;2023-11-19T05:56:15;24.25;;;3.92;;
79533;SDS011;68982;52.160;6.736;2023-11-19T05:58:46;21.33;;;4.55;;
79533;SDS011;68982;52.160;6.736;2023-11-19T06:01:14;24.33;;;3.53;;
79533;SDS011;68982;52.160;6.736;2023-11-19T06:03:39;26.75;;;4.75;;
79533;SDS011;68982;52.160;6.736;2023-11-19T06:06:05;21.37;;;3.87;;
79533;SDS011;68982;52.160;6.736;2023-11-19T06:08:31;24.90;;;4.55;;
79533;SDS011;68982;52.160;6.736;2023-11-19T06:10:56;30.27;;;4.43;;
79533;SDS011;68982;52.160;6.736;2023-11-19T06:13:22;25.50;;;4.05;;
79533;SDS011;68982;52.160;6.736;2023-11-19T06:15:47;23.38;;;4.18;;
79533;SDS011;68982;52.160;6.736;2023-11-19T06:18:12;25.40;;;4.35;;
79533;SDS011;68982;52.160;6.736;2023-11-19T06:20:40;28.58;;;4.53;;
79533;SDS011;68982;52.160;6.736;2023-11-19T06:23:05;37.63;;;4.22;;
79533;SDS011;68982;52.160;6.736;2023-11-19T06:25:31;24.15;;;4.57;;
79533;SDS011;68982;52.160;6.736;2023-11-19T06:27:57;22.63;;;4.65;;
79533;SDS011;68982;52.160;6.736;2023-11-19T06:30:23;31.00;;;4.20;;
79533;SDS011;68982;52.160;6.736;2023-11-19T06:32:48;30.55;;;4.57;;
79533;SDS011;68982;52.160;6.736;2023-11-19T06:35:14;33.67;;;4.53;;
79533;SDS011;68982;52.160;6.736;2023-11-19T06:37:39;29.35;;;4.40;;
79533;SDS011;68982;52.160;6.736;2023-11-19T06:40:06;16.88;;;3.45;;
79533;SDS011;68982;52.160;6.736;2023-11-19T06:42:34;23.05;;;4.07;;
79533;SDS011;68982;52.160;6.736;2023-11-19T06:44:59;35.78;;;4.95;;
79533;SDS011;68982;52.160;6.736;2023-11-19T06:47:25;24.00;;;3.97;;
79533;SDS011;68982;52.160;6.736;2023-11-19T06:49:52;28.58;;;5.43;;
79533;SDS011;68982;52.160;6.736;2023-11-19T06:52:18;22.92;;;3.78;;
79533;SDS011;68982;52.160;6.736;2023-11-19T06:54:44;23.25;;;3.63;;
79533;SDS011;68982;52.160;6.736;2023-11-19T06:57:10;24.83;;;4.20;;
79533;SDS011;68982;52.160;6.736;2023-11-19T06:59:36;23.63;;;4.28;;
79533;SDS011;68982;52.160;6.736;2023-11-19T07:02:02;29.10;;;4.07;;
79533;SDS011;68982;52.160;6.736;2023-11-19T07:04:27;28.23;;;4.32;;
79533;SDS011;68982;52.160;6.736;2023-11-19T07:06:52;20.43;;;3.83;;
79533;SDS011;68982;52.160;6.736;2023-11-19T07:09:18;23.83;;;4.70;;
79533;SDS011;68982;52.160;6.736;2023-11-19T07:11:44;30.15;;;4.32;;
79533;SDS011;68982;52.160;6.736;2023-11-19T07:14:11;32.80;;;4.80;;
79533;SDS011;68982;52.160;6.736;2023-11-19T07:16:37;28.75;;;5.18;;
79533;SDS011;68982;52.160;6.736;2023-11-19T07:19:04;23.35;;;4.50;;
79533;SDS011;68982;52.160;6.736;2023-11-19T07:21:30;28.00;;;5.55;;
79533;SDS011;68982;52.160;6.736;2023-11-19T07:23:56;32.15;;;7.80;;
79533;SDS011;68982;52.160;6.736;2023-11-19T07:26:21;29.65;;;5.28;;
79533;SDS011;68982;52.160;6.736;2023-11-19T07:28:47;25.38;;;5.00;;
79533;SDS011;68982;52.160;6.736;2023-11-19T07:31:13;25.98;;;5.78;;
79533;SDS011;68982;52.160;6.736;2023-11-19T07:33:42;28.70;;;4.90;;
79533;SDS011;68982;52.160;6.736;2023-11-19T07:36:10;25.70;;;5.97;;
79533;SDS011;68982;52.160;6.736;2023-11-19T07:38:36;23.10;;;3.85;;
79533;SDS011;68982;52.160;6.736;2023-11-19T07:41:02;29.52;;;4.57;;
79533;SDS011;68982;52.160;6.736;2023-11-19T07:43:27;25.85;;;4.93;;
79533;SDS011;68982;52.160;6.736;2023-11-19T07:45:52;30.75;;;4.47;;
79533;SDS011;68982;52.160;6.736;2023-11-19T07:48:18;30.73;;;5.85;;
79533;SDS011;68982;52.160;6.736;2023-11-19T07:50:48;32.05;;;4.97;;
79533;SDS011;68982;52.160;6.736;2023-11-19T07:53:15;25.48;;;4.38;;
79533;SDS011;68982;52.160;6.736;2023-11-19T07:55:41;29.17;;;5.28;;
79533;SDS011;68982;52.160;6.736;2023-11-19T07:58:06;24.80;;;4.93;;
79533;SDS011;68982;52.160;6.736;2023-11-19T08:00:31;21.67;;;4.85;;
79533;SDS011;68982;52.160;6.736;2023-11-19T08:02:57;20.23;;;4.60;;
79533;SDS011;68982;52.160;6.736;2023-11-19T08:05:22;33.22;;;5.07;;
79533;SDS011;68982;52.160;6.736;2023-11-19T08:07:49;26.35;;;4.85;;
79533;SDS011;68982;52.160;6.736;2023-11-19T08:10:15;27.80;;;4.07;;
79533;SDS011;68982;52.160;6.736;2023-11-19T08:12:40;21.45;;;3.90;;
79533;SDS011;68982;52.160;6.736;2023-11-19T08:15:06;30.42;;;4.68;;
79533;SDS011;68982;52.160;6.736;2023-11-19T08:17:32;36.28;;;6.32;;
79533;SDS011;68982;52.160;6.736;2023-11-19T08:19:57;26.40;;;4.45;;
79533;SDS011;68982;52.160;6.736;2023-11-19T08:22:25;22.48;;;4.82;;
79533;SDS011;68982;52.160;6.736;2023-11-19T08:24:50;29.13;;;4.40;;
79533;SDS011;68982;52.160;6.736;2023-11-19T08:27:15;26.42;;;4.30;;
79533;SDS011;68982;52.160;6.736;2023-11-19T08:29:41;22.20;;;4.47;;
79533;SDS011;68982;52.160;6.736;2023-11-19T08:32:06;22.20;;;4.43;;
79533;SDS011;68982;52.160;6.736;2023-11-19T08:34:32;22.15;;;4.03;;
79533;SDS011;68982;52.160;6.736;2023-11-19T08:36:57;25.27;;;4.25;;
79533;SDS011;68982;52.160;6.736;2023-11-19T08:39:22;19.45;;;4.53;;
79533;SDS011;68982;52.160;6.736;2023-11-19T08:41:48;23.25;;;4.28;;
79533;SDS011;68982;52.160;6.736;2023-11-19T08:44:13;24.10;;;4.45;;
79533;SDS011;68982;52.160;6.736;2023-11-19T08:46:39;27.38;;;5.38;;
79533;SDS011;68982;52.160;6.736;2023-11-19T08:49:10;33.35;;;4.90;;
79533;SDS011;68982;52.160;6.736;2023-11-19T08:51:36;27.38;;;4.72;;
79533;SDS011;68982;52.160;6.736;2023-11-19T08:54:01;25.30;;;4.57;;
79533;SDS011;68982;52.160;6.736;2023-11-19T08:56:26;25.37;;;5.33;;
79533;SDS011;68982;52.160;6.736;2023-11-19T08:58:56;29.00;;;4.32;;
79533;SDS011;68982;52.160;6.736;2023-11-19T09:01:22;20.80;;;3.97;;
79533;SDS011;68982;52.160;6.736;2023-11-19T09:03:47;25.02;;;5.15;;
79533;SDS011;68982;52.160;6.736;2023-11-19T09:06:12;24.70;;;4.40;;
79533;SDS011;68982;52.160;6.736;2023-11-19T09:08:38;17.65;;;4.10;;
79533;SDS011;68982;52.160;6.736;2023-11-19T09:11:06;31.00;;;5.47;;
79533;SDS011;68982;52.160;6.736;2023-11-19T09:13:32;29.92;;;5.57;;
79533;SDS011;68982;52.160;6.736;2023-11-19T09:15:57;20.60;;;4.27;;
79533;SDS011;68982;52.160;6.736;2023-11-19T09:18:28;22.90;;;4.32;;
79533;SDS011;68982;52.160;6.736;2023-11-19T09:20:53;22.77;;;4.63;;
79533;SDS011;68982;52.160;6.736;2023-11-19T09:23:19;27.50;;;4.93;;
79533;SDS011;68982;52.160;6.736;2023-11-19T09:25:44;23.48;;;4.53;;
79533;SDS011;68982;52.160;6.736;2023-11-19T09:28:10;24.47;;;4.10;;
79533;SDS011;68982;52.160;6.736;2023-11-19T09:30:35;28.60;;;6.07;;
79533;SDS011;68982;52.160;6.736;2023-11-19T09:33:01;28.63;;;5.13;;
79533;SDS011;68982;52.160;6.736;2023-11-19T09:35:26;21.08;;;4.38;;
79533;SDS011;68982;52.160;6.736;2023-11-19T09:37:51;27.07;;;6.20;;
79533;SDS011;68982;52.160;6.736;2023-11-19T09:40:17;29.73;;;3.40;;
79533;SDS011;68982;52.160;6.736;2023-11-19T09:42:43;20.60;;;4.03;;
79533;SDS011;68982;52.160;6.736;2023-11-19T09:45:12;21.75;;;4.47;;
79533;SDS011;68982;52.160;6.736;2023-11-19T09:47:40;29.60;;;4.35;;
79533;SDS011;68982;52.160;6.736;2023-11-19T09:50:08;19.92;;;3.47;;
79533;SDS011;68982;52.160;6.736;2023-11-19T09:52:34;24.20;;;4.65;;
79533;SDS011;68982;52.160;6.736;2023-11-19T09:55:00;26.48;;;5.50;;
79533;SDS011;68982;52.160;6.736;2023-11-19T09:57:25;29.88;;;4.45;;
79533;SDS011;68982;52.160;6.736;2023-11-19T09:59:52;30.75;;;5.30;;
79533;SDS011;68982;52.160;6.736;2023-11-19T10:02:19;27.02;;;4.50;;
79533;SDS011;68982;52.160;6.736;2023-11-19T10:04:45;22.40;;;4.00;;
79533;SDS011;68982;52.160;6.736;2023-11-19T10:07:12;23.75;;;4.32;;
79533;SDS011;68982;52.160;6.736;2023-11-19T10:09:37;20.98;;;5.40;;
79533;SDS011;68982;52.160;6.736;2023-11-19T10:12:03;21.45;;;3.97;;
79533;SDS011;68982;52.160;6.736;2023-11-19T10:14:29;20.77;;;3.90;;
79533;SDS011;68982;52.160;6.736;2023-11-19T10:16:56;29.52;;;4.43;;
79533;SDS011;68982;52.160;6.736;2023-11-19T10:19:22;26.13;;;4.43;;
79533;SDS011;68982;52.160;6.736;2023-11-19T10:21:48;25.77;;;4.30;;
79533;SDS011;68982;52.160;6.736;2023-11-19T10:24:13;27.15;;;4.32;;
79533;SDS011;68982;52.160;6.736;2023-11-19T10:26:38;24.63;;;4.50;;
79533;SDS011;68982;52.160;6.736;2023-11-19T10:29:05;23.02;;;4.68;;
79533;SDS011;68982;52.160;6.736;2023-11-19T10:31:30;23.60;;;4.40;;
79533;SDS011;68982;52.160;6.736;2023-11-19T10:33:56;17.95;;;3.45;;
79533;SDS011;68982;52.160;6.736;2023-11-19T10:36:22;24.40;;;4.43;;
79533;SDS011;68982;52.160;6.736;2023-11-19T10:38:55;31.08;;;7.05;;
79533;SDS011;68982;52.160;6.736;2023-11-19T10:43:54;25.55;;;5.65;;
79533;SDS011;68982;52.160;6.736;2023-11-19T10:46:19;23.45;;;4.40;;
79533;SDS011;68982;52.160;6.736;2023-11-19T10:48:48;17.58;;;3.83;;
79533;SDS011;68982;52.160;6.736;2023-11-19T10:51:13;20.73;;;3.72;;
79533;SDS011;68982;52.160;6.736;2023-11-19T10:53:49;26.25;;;4.72;;
79533;SDS011;68982;52.160;6.736;2023-11-19T10:56:16;22.73;;;3.78;;
79533;SDS011;68982;52.160;6.736;2023-11-19T10:58:44;28.45;;;4.18;;
79533;SDS011;68982;52.160;6.736;2023-11-19T11:01:16;23.85;;;4.90;;
79533;SDS011;68982;52.160;6.736;2023-11-19T11:03:47;29.50;;;4.30;;
79533;SDS011;68982;52.160;6.736;2023-11-19T11:06:16;22.40;;;4.25;;
79533;SDS011;68982;52.160;6.736;2023-11-19T11:08:43;24.30;;;4.53;;
79533;SDS011;68982;52.160;6.736;2023-11-19T11:11:11;24.15;;;3.85;;
79533;SDS011;68982;52.160;6.736;2023-11-19T11:13:41;26.00;;;4.10;;
79533;SDS011;68982;52.160;6.736;2023-11-19T11:16:07;26.60;;;4.80;;
79533;SDS011;68982;52.160;6.736;2023-11-19T11:18:33;17.25;;;3.60;;
79533;SDS011;68982;52.160;6.736;2023-11-19T11:21:00;16.85;;;3.90;;
79533;SDS011;68982;52.160;6.736;2023-11-19T11:29:05;29.35;;;5.60;;
79533;SDS011;68982;52.160;6.736;2023-11-19T11:40:04;19.75;;;5.57;;
79533;SDS011;68982;52.160;6.736;2023-11-19T11:42:35;20.88;;;4.10;;
79533;SDS011;68982;52.160;6.736;2023-11-19T11:45:07;28.08;;;4.68;;
79533;SDS011;68982;52.160;6.736;2023-11-19T11:50:12;17.25;;;3.88;;
79533;SDS011;68982;52.160;6.736;2023-11-19T11:55:28;23.00;;;3.30;;
79533;SDS011;68982;52.160;6.736;2023-11-19T11:58:01;20.92;;;3.78;;
79533;SDS011;68982;52.160;6.736;2023-11-19T12:00:36;18.40;;;4.40;;
79533;SDS011;68982;52.160;6.736;2023-11-19T12:03:04;17.60;;;4.32;;
79533;SDS011;68982;52.160;6.736;2023-11-19T12:05:30;19.23;;;4.13;;
79533;SDS011;68982;52.160;6.736;2023-11-19T12:08:02;14.25;;;2.95;;
79533;SDS011;68982;52.160;6.736;2023-11-19T12:10:31;24.40;;;3.63;;
79533;SDS011;68982;52.160;6.736;2023-11-19T12:13:00;24.92;;;3.92;;
79533;SDS011;68982;52.160;6.736;2023-11-19T12:15:26;16.75;;;3.45;;
79533;SDS011;68982;52.160;6.736;2023-11-19T12:17:53;18.50;;;3.58;;
79533;SDS011;68982;52.160;6.736;2023-11-19T12:20:23;19.00;;;3.65;;
79533;SDS011;68982;52.160;6.736;2023-11-19T12:22:49;11.40;;;3.00;;
79533;SDS011;68982;52.160;6.736;2023-11-19T12:25:16;19.20;;;3.58;;
79533;SDS011;68982;52.160;6.736;2023-11-19T12:27:46;21.17;;;3.78;;
79533;SDS011;68982;52.160;6.736;2023-11-19T12:30:16;17.90;;;3.45;;
79533;SDS011;68982;52.160;6.736;2023-11-19T12:32:43;20.13;;;3.65;;
79533;SDS011;68982;52.160;6.736;2023-11-19T12:37:43;19.50;;;3.47;;
79533;SDS011;68982;52.160;6.736;2023-11-19T12:40:20;23.95;;;3.50;;
79533;SDS011;68982;52.160;6.736;2023-11-19T12:42:47;18.65;;;3.70;;
79533;SDS011;68982;52.160;6.736;2023-11-19T12:45:13;18.80;;;4.57;;
79533;SDS011;68982;52.160;6.736;2023-11-19T12:47:39;22.63;;;3.83;;
79533;SDS011;68982;52.160;6.736;2023-11-19T12:50:08;18.73;;;3.15;;
79533;SDS011;68982;52.160;6.736;2023-11-19T12:52:38;17.73;;;4.30;;
79533;SDS011;68982;52.160;6.736;2023-11-19T12:57:55;21.15;;;4.53;;
79533;SDS011;68982;52.160;6.736;2023-11-19T13:00:22;19.45;;;3.50;;
79533;SDS011;68982;52.160;6.736;2023-11-19T13:02:48;25.20;;;4.60;;
79533;SDS011;68982;52.160;6.736;2023-11-19T13:07:47;21.60;;;4.63;;
79533;SDS011;68982;52.160;6.736;2023-11-19T13:10:12;16.57;;;4.03;;
79533;SDS011;68982;52.160;6.736;2023-11-19T13:12:38;20.13;;;4.22;;
79533;SDS011;68982;52.160;6.736;2023-11-19T13:15:04;21.77;;;3.97;;
79533;SDS011;68982;52.160;6.736;2023-11-19T13:17:30;18.17;;;3.53;;
79533;SDS011;68982;52.160;6.736;2023-11-19T13:19:55;21.77;;;4.15;;
79533;SDS011;68982;52.160;6.736;2023-11-19T13:22:22;18.33;;;3.35;;
79533;SDS011;68982;52.160;6.736;2023-11-19T13:24:47;28.65;;;4.63;;
79533;SDS011;68982;52.160;6.736;2023-11-19T13:27:13;18.17;;;3.67;;
79533;SDS011;68982;52.160;6.736;2023-11-19T13:29:38;22.88;;;4.63;;
79533;SDS011;68982;52.160;6.736;2023-11-19T13:32:04;21.48;;;3.63;;
79533;SDS011;68982;52.160;6.736;2023-11-19T13:34:30;21.67;;;4.80;;
79533;SDS011;68982;52.160;6.736;2023-11-19T13:36:56;18.50;;;3.33;;
79533;SDS011;68982;52.160;6.736;2023-11-19T13:39:21;11.90;;;2.35;;
79533;SDS011;68982;52.160;6.736;2023-11-19T13:41:48;21.42;;;4.22;;
79533;SDS011;68982;52.160;6.736;2023-11-19T13:44:15;17.85;;;3.50;;
79533;SDS011;68982;52.160;6.736;2023-11-19T13:46:40;11.38;;;2.65;;
79533;SDS011;68982;52.160;6.736;2023-11-19T13:49:06;16.70;;;3.63;;
79533;SDS011;68982;52.160;6.736;2023-11-19T13:51:31;14.30;;;3.08;;
79533;SDS011;68982;52.160;6.736;2023-11-19T13:53:57;11.88;;;2.83;;
79533;SDS011;68982;52.160;6.736;2023-11-19T13:56:23;12.77;;;2.67;;
79533;SDS011;68982;52.160;6.736;2023-11-19T13:58:48;14.30;;;3.00;;
79533;SDS011;68982;52.160;6.736;2023-11-19T14:01:14;13.03;;;2.70;;
79533;SDS011;68982;52.160;6.736;2023-11-19T14:03:39;15.20;;;2.78;;
79533;SDS011;68982;52.160;6.736;2023-11-19T14:06:05;10.32;;;2.90;;
79533;SDS011;68982;52.160;6.736;2023-11-19T14:08:33;14.48;;;3.00;;
79533;SDS011;68982;52.160;6.736;2023-11-19T14:10:58;16.35;;;3.25;;
79533;SDS011;68982;52.160;6.736;2023-11-19T14:13:24;14.25;;;3.63;;
79533;SDS011;68982;52.160;6.736;2023-11-19T14:15:49;11.07;;;3.45;;
79533;SDS011;68982;52.160;6.736;2023-11-19T14:18:15;18.50;;;4.03;;
79533;SDS011;68982;52.160;6.736;2023-11-19T14:20:41;10.50;;;3.03;;
79533;SDS011;68982;52.160;6.736;2023-11-19T14:23:06;13.35;;;2.72;;
79533;SDS011;68982;52.160;6.736;2023-11-19T14:25:32;16.35;;;3.78;;
79533;SDS011;68982;52.160;6.736;2023-11-19T14:27:57;16.00;;;2.95;;
79533;SDS011;68982;52.160;6.736;2023-11-19T14:30:22;13.45;;;3.17;;
79533;SDS011;68982;52.160;6.736;2023-11-19T14:32:48;19.03;;;4.20;;
79533;SDS011;68982;52.160;6.736;2023-11-19T14:35:14;14.35;;;3.47;;
79533;SDS011;68982;52.160;6.736;2023-11-19T14:37:40;19.00;;;3.75;;
79533;SDS011;68982;52.160;6.736;2023-11-19T14:40:05;16.35;;;4.03;;
79533;SDS011;68982;52.160;6.736;2023-11-19T14:42:34;17.23;;;3.40;;
79533;SDS011;68982;52.160;6.736;2023-11-19T14:45:00;13.43;;;3.70;;
79533;SDS011;68982;52.160;6.736;2023-11-19T14:47:25;12.15;;;2.97;;
79533;SDS011;68982;52.160;6.736;2023-11-19T14:49:50;14.52;;;3.33;;
79533;SDS011;68982;52.160;6.736;2023-11-19T14:52:16;16.95;;;3.80;;
79533;SDS011;68982;52.160;6.736;2023-11-19T14:54:42;17.83;;;3.42;;
79533;SDS011;68982;52.160;6.736;2023-11-19T14:57:07;18.23;;;4.17;;